Terminal Aerodrome Forecast
Issued by NWS

Current Version | Previous Version | Text Only | Print | Product List | Glossary On
Versions: 1 2 3 4 5 6 7 8 9 10 11 12 13 14 15 16 17 18 19 20 21 22 23 24 25 26 27 28 29 30 31 32 33 34 35 36 37 38 39 40 41 42 43 44 45 46 47 48 49 50
000
FTUS44 KHGX 230302 AAA
TAFIAH
TAF AMD
KIAH 230302Z 2303/2406 VRB05KT P6SM FEW007 BKN250
     FM230900 VRB03KT 5SM BR SCT008 BKN015 OVC035
     FM231500 33006KT 6SM BR VCSH OVC007
     FM231900 33015G25KT P6SM VCSH SCT008 BKN015 OVC050
     FM240000 34014KT P6SM SCT035 BKN050
     FM240500 32009KT P6SM SKC=

USA.gov is the U.S. government's official web portal to all federal, state and local government web resources and services.